sensor_id;sensor_type;location;lat;lon;timestamp;P1;durP1;ratioP1;P2;durP2;ratioP2
15110;SDS011;7656;51.954;7.998;2023-02-28T00:00:09;8.10;;;4.50;;
15110;SDS011;7656;51.954;7.998;2023-02-28T00:04:33;8.33;;;5.67;;
15110;SDS011;7656;51.954;7.998;2023-02-28T00:08:54;6.10;;;5.10;;
15110;SDS011;7656;51.954;7.998;2023-02-28T00:13:15;6.80;;;5.27;;
15110;SDS011;7656;51.954;7.998;2023-02-28T00:17:37;8.80;;;5.23;;
15110;SDS011;7656;51.954;7.998;2023-02-28T00:21:58;6.40;;;5.17;;
15110;SDS011;7656;51.954;7.998;2023-02-28T00:26:19;10.40;;;5.80;;
15110;SDS011;7656;51.954;7.998;2023-02-28T00:30:40;10.40;;;6.07;;
15110;SDS011;7656;51.954;7.998;2023-02-28T00:35:02;6.40;;;5.10;;
15110;SDS011;7656;51.954;7.998;2023-02-28T00:39:25;7.60;;;5.00;;
15110;SDS011;7656;51.954;7.998;2023-02-28T00:43:46;7.40;;;4.93;;
15110;SDS011;7656;51.954;7.998;2023-02-28T00:48:07;9.13;;;4.97;;
15110;SDS011;7656;51.954;7.998;2023-02-28T00:52:28;12.83;;;5.50;;
15110;SDS011;7656;51.954;7.998;2023-02-28T00:56:49;7.93;;;5.33;;
15110;SDS011;7656;51.954;7.998;2023-02-28T01:01:10;8.07;;;5.17;;
15110;SDS011;7656;51.954;7.998;2023-02-28T01:05:32;7.63;;;5.30;;
15110;SDS011;7656;51.954;7.998;2023-02-28T01:09:53;6.80;;;4.70;;
15110;SDS011;7656;51.954;7.998;2023-02-28T01:14:14;6.07;;;4.30;;
15110;SDS011;7656;51.954;7.998;2023-02-28T01:18:39;7.60;;;4.40;;
15110;SDS011;7656;51.954;7.998;2023-02-28T01:23:01;5.57;;;3.73;;
15110;SDS011;7656;51.954;7.998;2023-02-28T01:27:22;6.20;;;3.57;;
15110;SDS011;7656;51.954;7.998;2023-02-28T01:31:43;4.73;;;3.50;;
15110;SDS011;7656;51.954;7.998;2023-02-28T01:36:06;5.27;;;3.40;;
15110;SDS011;7656;51.954;7.998;2023-02-28T01:40:31;4.07;;;3.47;;
15110;SDS011;7656;51.954;7.998;2023-02-28T01:49:49;3.93;;;3.13;;
15110;SDS011;7656;51.954;7.998;2023-02-28T01:54:16;6.33;;;3.63;;
15110;SDS011;7656;51.954;7.998;2023-02-28T01:58:41;5.20;;;3.47;;
15110;SDS011;7656;51.954;7.998;2023-02-28T02:03:07;6.30;;;4.03;;
15110;SDS011;7656;51.954;7.998;2023-02-28T02:07:32;6.20;;;3.50;;
15110;SDS011;7656;51.954;7.998;2023-02-28T02:11:56;4.50;;;3.60;;
15110;SDS011;7656;51.954;7.998;2023-02-28T02:31:29;3.80;;;3.40;;
15110;SDS011;7656;51.954;7.998;2023-02-28T02:36:27;7.30;;;3.70;;
15110;SDS011;7656;51.954;7.998;2023-02-28T02:41:14;7.30;;;4.40;;
15110;SDS011;7656;51.954;7.998;2023-02-28T02:45:52;5.73;;;3.90;;
15110;SDS011;7656;51.954;7.998;2023-02-28T02:50:43;8.47;;;3.73;;
15110;SDS011;7656;51.954;7.998;2023-02-28T02:55:10;5.50;;;3.57;;
15110;SDS011;7656;51.954;7.998;2023-02-28T02:59:36;7.57;;;3.70;;
15110;SDS011;7656;51.954;7.998;2023-02-28T03:04:02;4.20;;;3.60;;
15110;SDS011;7656;51.954;7.998;2023-02-28T03:08:29;5.67;;;3.63;;
15110;SDS011;7656;51.954;7.998;2023-02-28T03:18:01;4.70;;;3.63;;
15110;SDS011;7656;51.954;7.998;2023-02-28T03:22:33;4.30;;;2.93;;
15110;SDS011;7656;51.954;7.998;2023-02-28T03:27:18;5.23;;;3.33;;
15110;SDS011;7656;51.954;7.998;2023-02-28T03:31:52;6.57;;;3.23;;
15110;SDS011;7656;51.954;7.998;2023-02-28T03:36:17;4.63;;;3.60;;
15110;SDS011;7656;51.954;7.998;2023-02-28T03:40:50;3.73;;;3.07;;
15110;SDS011;7656;51.954;7.998;2023-02-28T03:45:19;5.73;;;3.30;;
15110;SDS011;7656;51.954;7.998;2023-02-28T03:49:47;5.47;;;3.17;;
15110;SDS011;7656;51.954;7.998;2023-02-28T03:54:31;3.90;;;2.93;;
15110;SDS011;7656;51.954;7.998;2023-02-28T03:59:06;6.50;;;3.40;;
15110;SDS011;7656;51.954;7.998;2023-02-28T04:03:41;6.43;;;3.83;;
15110;SDS011;7656;51.954;7.998;2023-02-28T04:08:03;6.00;;;3.80;;
15110;SDS011;7656;51.954;7.998;2023-02-28T04:12:28;5.33;;;3.33;;
15110;SDS011;7656;51.954;7.998;2023-02-28T04:16:49;4.67;;;3.57;;
15110;SDS011;7656;51.954;7.998;2023-02-28T04:21:11;5.97;;;3.57;;
15110;SDS011;7656;51.954;7.998;2023-02-28T04:25:32;5.70;;;4.00;;
15110;SDS011;7656;51.954;7.998;2023-02-28T04:29:53;5.57;;;4.50;;
15110;SDS011;7656;51.954;7.998;2023-02-28T04:34:14;6.43;;;4.50;;
15110;SDS011;7656;51.954;7.998;2023-02-28T04:38:36;6.53;;;4.07;;
15110;SDS011;7656;51.954;7.998;2023-02-28T04:42:58;6.50;;;4.23;;
15110;SDS011;7656;51.954;7.998;2023-02-28T04:47:19;5.80;;;4.23;;
15110;SDS011;7656;51.954;7.998;2023-02-28T04:51:41;4.90;;;3.67;;
15110;SDS011;7656;51.954;7.998;2023-02-28T04:56:02;5.30;;;3.73;;
15110;SDS011;7656;51.954;7.998;2023-02-28T05:00:24;5.37;;;3.57;;
15110;SDS011;7656;51.954;7.998;2023-02-28T05:04:45;4.50;;;3.30;;
15110;SDS011;7656;51.954;7.998;2023-02-28T05:09:06;6.57;;;3.30;;
15110;SDS011;7656;51.954;7.998;2023-02-28T05:13:27;4.87;;;3.60;;
15110;SDS011;7656;51.954;7.998;2023-02-28T05:17:49;4.87;;;3.23;;
15110;SDS011;7656;51.954;7.998;2023-02-28T05:22:14;8.23;;;4.37;;
15110;SDS011;7656;51.954;7.998;2023-02-28T05:26:39;5.30;;;3.93;;
15110;SDS011;7656;51.954;7.998;2023-02-28T05:31:02;4.70;;;3.47;;
15110;SDS011;7656;51.954;7.998;2023-02-28T05:35:24;6.57;;;3.30;;
15110;SDS011;7656;51.954;7.998;2023-02-28T05:39:46;5.80;;;3.50;;
15110;SDS011;7656;51.954;7.998;2023-02-28T05:44:07;7.40;;;3.73;;
15110;SDS011;7656;51.954;7.998;2023-02-28T05:48:29;5.33;;;3.53;;
15110;SDS011;7656;51.954;7.998;2023-02-28T05:52:50;8.07;;;4.47;;
15110;SDS011;7656;51.954;7.998;2023-02-28T05:57:11;9.67;;;3.40;;
15110;SDS011;7656;51.954;7.998;2023-02-28T06:01:36;5.20;;;3.50;;
15110;SDS011;7656;51.954;7.998;2023-02-28T06:06:00;7.20;;;3.20;;
15110;SDS011;7656;51.954;7.998;2023-02-28T06:10:21;6.03;;;3.17;;
15110;SDS011;7656;51.954;7.998;2023-02-28T06:14:42;6.17;;;4.10;;
15110;SDS011;7656;51.954;7.998;2023-02-28T06:19:03;3.50;;;2.97;;
15110;SDS011;7656;51.954;7.998;2023-02-28T06:23:24;5.00;;;3.33;;
15110;SDS011;7656;51.954;7.998;2023-02-28T06:27:46;6.67;;;4.00;;
15110;SDS011;7656;51.954;7.998;2023-02-28T06:32:07;7.70;;;4.43;;
15110;SDS011;7656;51.954;7.998;2023-02-28T06:36:28;13.07;;;4.30;;
15110;SDS011;7656;51.954;7.998;2023-02-28T06:40:53;5.67;;;3.83;;
15110;SDS011;7656;51.954;7.998;2023-02-28T06:45:15;6.77;;;4.13;;
15110;SDS011;7656;51.954;7.998;2023-02-28T06:49:37;6.23;;;4.40;;
15110;SDS011;7656;51.954;7.998;2023-02-28T06:53:59;7.20;;;3.97;;
15110;SDS011;7656;51.954;7.998;2023-02-28T06:58:20;6.27;;;4.23;;
15110;SDS011;7656;51.954;7.998;2023-02-28T07:02:42;6.00;;;4.20;;
15110;SDS011;7656;51.954;7.998;2023-02-28T07:07:03;6.67;;;4.70;;
15110;SDS011;7656;51.954;7.998;2023-02-28T07:11:25;8.87;;;5.00;;
15110;SDS011;7656;51.954;7.998;2023-02-28T07:16:00;8.40;;;5.57;;
15110;SDS011;7656;51.954;7.998;2023-02-28T07:20:24;7.53;;;5.80;;
15110;SDS011;7656;51.954;7.998;2023-02-28T07:24:45;8.50;;;5.60;;
15110;SDS011;7656;51.954;7.998;2023-02-28T07:29:06;7.80;;;5.43;;
15110;SDS011;7656;51.954;7.998;2023-02-28T07:33:27;8.27;;;5.33;;
15110;SDS011;7656;51.954;7.998;2023-02-28T07:37:49;5.53;;;4.97;;
15110;SDS011;7656;51.954;7.998;2023-02-28T07:42:10;6.73;;;5.30;;
15110;SDS011;7656;51.954;7.998;2023-02-28T07:46:33;6.27;;;4.93;;
15110;SDS011;7656;51.954;7.998;2023-02-28T07:50:56;5.80;;;4.40;;
15110;SDS011;7656;51.954;7.998;2023-02-28T07:55:18;6.07;;;4.57;;
15110;SDS011;7656;51.954;7.998;2023-02-28T07:59:40;4.23;;;3.83;;
15110;SDS011;7656;51.954;7.998;2023-02-28T08:04:01;8.15;;;5.82;;
15110;SDS011;7656;51.954;7.998;2023-02-28T08:08:23;5.20;;;4.70;;
15110;SDS011;7656;51.954;7.998;2023-02-28T08:12:44;3.42;;;3.20;;
15110;SDS011;7656;51.954;7.998;2023-02-28T08:17:06;4.63;;;3.78;;
15110;SDS011;7656;51.954;7.998;2023-02-28T08:21:27;4.93;;;3.83;;
15110;SDS011;7656;51.954;7.998;2023-02-28T08:25:52;4.80;;;4.07;;
15110;SDS011;7656;51.954;7.998;2023-02-28T08:30:15;6.03;;;4.20;;
15110;SDS011;7656;51.954;7.998;2023-02-28T08:34:38;4.20;;;3.35;;
15110;SDS011;7656;51.954;7.998;2023-02-28T08:39:00;4.80;;;3.40;;
15110;SDS011;7656;51.954;7.998;2023-02-28T08:43:23;4.00;;;3.50;;
15110;SDS011;7656;51.954;7.998;2023-02-28T08:47:44;3.33;;;3.05;;
15110;SDS011;7656;51.954;7.998;2023-02-28T08:52:06;2.85;;;2.65;;
15110;SDS011;7656;51.954;7.998;2023-02-28T08:56:28;6.05;;;2.20;;
15110;SDS011;7656;51.954;7.998;2023-02-28T09:00:50;1.90;;;1.80;;
15110;SDS011;7656;51.954;7.998;2023-02-28T09:05:11;1.77;;;1.67;;
15110;SDS011;7656;51.954;7.998;2023-02-28T09:09:33;1.90;;;1.80;;
15110;SDS011;7656;51.954;7.998;2023-02-28T09:13:54;2.28;;;1.42;;
15110;SDS011;7656;51.954;7.998;2023-02-28T09:18:16;7.13;;;1.73;;
15110;SDS011;7656;51.954;7.998;2023-02-28T09:22:37;1.48;;;1.40;;
15110;SDS011;7656;51.954;7.998;2023-02-28T09:26:59;3.38;;;1.58;;
15110;SDS011;7656;51.954;7.998;2023-02-28T09:31:22;5.32;;;2.08;;
15110;SDS011;7656;51.954;7.998;2023-02-28T09:35:45;3.08;;;1.90;;
15110;SDS011;7656;51.954;7.998;2023-02-28T09:40:08;2.30;;;1.80;;
15110;SDS011;7656;51.954;7.998;2023-02-28T09:44:33;1.83;;;1.70;;
15110;SDS011;7656;51.954;7.998;2023-02-28T09:48:59;2.05;;;1.40;;
15110;SDS011;7656;51.954;7.998;2023-02-28T09:53:43;2.80;;;1.88;;
15110;SDS011;7656;51.954;7.998;2023-02-28T09:58:04;1.45;;;1.35;;
15110;SDS011;7656;51.954;7.998;2023-02-28T10:02:37;1.20;;;1.20;;
15110;SDS011;7656;51.954;7.998;2023-02-28T10:07:29;1.58;;;1.48;;
15110;SDS011;7656;51.954;7.998;2023-02-28T10:12:17;2.07;;;1.40;;
15110;SDS011;7656;51.954;7.998;2023-02-28T10:16:41;1.60;;;1.50;;
15110;SDS011;7656;51.954;7.998;2023-02-28T10:21:12;1.53;;;1.40;;
15110;SDS011;7656;51.954;7.998;2023-02-28T10:25:55;2.27;;;1.60;;
15110;SDS011;7656;51.954;7.998;2023-02-28T10:30:21;1.50;;;1.40;;
15110;SDS011;7656;51.954;7.998;2023-02-28T10:34:42;1.53;;;1.40;;
15110;SDS011;7656;51.954;7.998;2023-02-28T10:39:33;1.60;;;1.33;;
15110;SDS011;7656;51.954;7.998;2023-02-28T10:44:17;1.87;;;1.43;;
15110;SDS011;7656;51.954;7.998;2023-02-28T10:48:48;1.33;;;1.20;;
15110;SDS011;7656;51.954;7.998;2023-02-28T10:53:37;1.30;;;1.20;;
15110;SDS011;7656;51.954;7.998;2023-02-28T10:58:25;2.10;;;1.40;;
15110;SDS011;7656;51.954;7.998;2023-02-28T11:02:50;1.27;;;1.17;;
15110;SDS011;7656;51.954;7.998;2023-02-28T11:07:19;1.30;;;1.20;;
15110;SDS011;7656;51.954;7.998;2023-02-28T11:11:43;1.33;;;1.30;;
15110;SDS011;7656;51.954;7.998;2023-02-28T11:16:09;1.50;;;1.40;;
15110;SDS011;7656;51.954;7.998;2023-02-28T11:20:33;1.50;;;1.40;;
15110;SDS011;7656;51.954;7.998;2023-02-28T11:24:59;2.43;;;1.70;;
15110;SDS011;7656;51.954;7.998;2023-02-28T11:29:24;1.73;;;1.60;;
15110;SDS011;7656;51.954;7.998;2023-02-28T11:33:52;1.60;;;1.50;;
15110;SDS011;7656;51.954;7.998;2023-02-28T11:38:15;2.07;;;1.83;;
15110;SDS011;7656;51.954;7.998;2023-02-28T11:42:40;4.40;;;1.77;;
15110;SDS011;7656;51.954;7.998;2023-02-28T11:47:21;2.87;;;1.57;;
15110;SDS011;7656;51.954;7.998;2023-02-28T11:57:28;1.80;;;1.70;;
15110;SDS011;7656;51.954;7.998;2023-02-28T12:02:20;3.13;;;1.83;;
15110;SDS011;7656;51.954;7.998;2023-02-28T12:07:25;1.73;;;1.63;;
15110;SDS011;7656;51.954;7.998;2023-02-28T12:16:53;1.50;;;1.40;;
15110;SDS011;7656;51.954;7.998;2023-02-28T12:26:46;1.40;;;1.30;;
15110;SDS011;7656;51.954;7.998;2023-02-28T12:31:15;1.53;;;1.30;;
15110;SDS011;7656;51.954;7.998;2023-02-28T12:40:21;1.27;;;1.20;;
15110;SDS011;7656;51.954;7.998;2023-02-28T12:44:46;4.77;;;1.70;;
15110;SDS011;7656;51.954;7.998;2023-02-28T12:49:33;1.60;;;1.03;;
15110;SDS011;7656;51.954;7.998;2023-02-28T12:58:30;1.20;;;1.10;;
15110;SDS011;7656;51.954;7.998;2023-02-28T13:08:11;1.33;;;1.20;;
15110;SDS011;7656;51.954;7.998;2023-02-28T13:13:04;2.10;;;1.20;;
15110;SDS011;7656;51.954;7.998;2023-02-28T13:17:25;1.80;;;1.70;;
15110;SDS011;7656;51.954;7.998;2023-02-28T13:21:46;1.40;;;1.20;;
15110;SDS011;7656;51.954;7.998;2023-02-28T13:26:08;1.83;;;1.00;;
15110;SDS011;7656;51.954;7.998;2023-02-28T13:35:32;1.23;;;1.10;;
15110;SDS011;7656;51.954;7.998;2023-02-28T13:39:58;1.50;;;1.33;;
15110;SDS011;7656;51.954;7.998;2023-02-28T13:44:27;1.90;;;1.30;;
15110;SDS011;7656;51.954;7.998;2023-02-28T13:48:48;1.70;;;1.60;;
15110;SDS011;7656;51.954;7.998;2023-02-28T14:06:58;1.90;;;1.17;;
15110;SDS011;7656;51.954;7.998;2023-02-28T14:11:24;2.40;;;1.50;;
15110;SDS011;7656;51.954;7.998;2023-02-28T14:15:57;1.70;;;1.60;;
15110;SDS011;7656;51.954;7.998;2023-02-28T14:20:22;1.50;;;1.40;;
15110;SDS011;7656;51.954;7.998;2023-02-28T14:39:34;2.17;;;1.57;;
15110;SDS011;7656;51.954;7.998;2023-02-28T14:43:58;1.50;;;1.40;;
15110;SDS011;7656;51.954;7.998;2023-02-28T14:48:21;1.70;;;1.60;;
15110;SDS011;7656;51.954;7.998;2023-02-28T14:52:44;2.37;;;2.00;;
15110;SDS011;7656;51.954;7.998;2023-02-28T14:57:06;2.87;;;1.80;;
15110;SDS011;7656;51.954;7.998;2023-02-28T15:01:41;3.73;;;1.77;;
15110;SDS011;7656;51.954;7.998;2023-02-28T15:10:26;1.70;;;1.53;;
15110;SDS011;7656;51.954;7.998;2023-02-28T15:14:48;1.97;;;1.40;;
15110;SDS011;7656;51.954;7.998;2023-02-28T15:19:20;1.70;;;1.60;;
15110;SDS011;7656;51.954;7.998;2023-02-28T15:23:49;1.73;;;1.57;;
15110;SDS011;7656;51.954;7.998;2023-02-28T15:28:53;2.90;;;1.60;;
15110;SDS011;7656;51.954;7.998;2023-02-28T15:33:22;2.27;;;1.70;;
15110;SDS011;7656;51.954;7.998;2023-02-28T15:42:35;3.63;;;1.70;;
15110;SDS011;7656;51.954;7.998;2023-02-28T15:46:58;2.33;;;1.70;;
15110;SDS011;7656;51.954;7.998;2023-02-28T15:51:24;1.37;;;1.33;;
15110;SDS011;7656;51.954;7.998;2023-02-28T15:55:59;2.63;;;1.83;;
15110;SDS011;7656;51.954;7.998;2023-02-28T16:00:24;1.97;;;1.47;;
15110;SDS011;7656;51.954;7.998;2023-02-28T16:04:54;3.30;;;1.90;;
15110;SDS011;7656;51.954;7.998;2023-02-28T16:09:31;2.30;;;2.10;;
15110;SDS011;7656;51.954;7.998;2023-02-28T16:13:52;3.07;;;1.90;;
15110;SDS011;7656;51.954;7.998;2023-02-28T16:18:14;3.83;;;1.80;;
15110;SDS011;7656;51.954;7.998;2023-02-28T16:22:35;2.00;;;1.80;;
15110;SDS011;7656;51.954;7.998;2023-02-28T16:26:56;1.90;;;1.70;;
15110;SDS011;7656;51.954;7.998;2023-02-28T16:31:17;2.53;;;1.77;;
15110;SDS011;7656;51.954;7.998;2023-02-28T16:35:39;2.00;;;1.80;;
15110;SDS011;7656;51.954;7.998;2023-02-28T16:40:00;1.70;;;1.60;;
15110;SDS011;7656;51.954;7.998;2023-02-28T16:44:29;2.23;;;1.73;;
15110;SDS011;7656;51.954;7.998;2023-02-28T16:48:54;2.43;;;2.10;;
15110;SDS011;7656;51.954;7.998;2023-02-28T16:53:15;2.47;;;1.53;;
15110;SDS011;7656;51.954;7.998;2023-02-28T16:57:36;2.43;;;2.17;;
15110;SDS011;7656;51.954;7.998;2023-02-28T17:01:57;2.27;;;2.00;;
15110;SDS011;7656;51.954;7.998;2023-02-28T17:06:20;3.57;;;2.23;;
15110;SDS011;7656;51.954;7.998;2023-02-28T17:10:44;4.70;;;2.80;;
15110;SDS011;7656;51.954;7.998;2023-02-28T17:15:06;4.90;;;3.20;;
15110;SDS011;7656;51.954;7.998;2023-02-28T17:19:28;6.47;;;3.57;;
15110;SDS011;7656;51.954;7.998;2023-02-28T17:23:49;5.57;;;3.50;;
15110;SDS011;7656;51.954;7.998;2023-02-28T17:28:11;2.93;;;2.60;;
15110;SDS011;7656;51.954;7.998;2023-02-28T17:32:32;5.73;;;3.23;;
15110;SDS011;7656;51.954;7.998;2023-02-28T17:36:53;8.73;;;4.73;;
15110;SDS011;7656;51.954;7.998;2023-02-28T17:41:14;3.33;;;2.73;;
15110;SDS011;7656;51.954;7.998;2023-02-28T17:45:35;5.03;;;3.40;;
15110;SDS011;7656;51.954;7.998;2023-02-28T17:49:57;5.17;;;2.93;;
15110;SDS011;7656;51.954;7.998;2023-02-28T17:54:18;4.17;;;3.20;;
15110;SDS011;7656;51.954;7.998;2023-02-28T17:58:40;5.13;;;3.83;;
15110;SDS011;7656;51.954;7.998;2023-02-28T18:03:01;6.27;;;4.53;;
15110;SDS011;7656;51.954;7.998;2023-02-28T18:07:22;8.30;;;5.40;;
15110;SDS011;7656;51.954;7.998;2023-02-28T18:11:44;8.67;;;5.57;;
15110;SDS011;7656;51.954;7.998;2023-02-28T18:16:05;11.37;;;5.67;;
15110;SDS011;7656;51.954;7.998;2023-02-28T18:20:29;7.27;;;5.20;;
15110;SDS011;7656;51.954;7.998;2023-02-28T18:24:50;5.83;;;4.80;;
15110;SDS011;7656;51.954;7.998;2023-02-28T18:29:19;4.33;;;3.90;;
15110;SDS011;7656;51.954;7.998;2023-02-28T18:33:49;7.07;;;4.37;;
15110;SDS011;7656;51.954;7.998;2023-02-28T18:42:35;10.53;;;7.07;;
15110;SDS011;7656;51.954;7.998;2023-02-28T18:46:56;8.10;;;5.93;;
15110;SDS011;7656;51.954;7.998;2023-02-28T18:51:18;8.70;;;6.03;;
15110;SDS011;7656;51.954;7.998;2023-02-28T18:55:44;11.37;;;7.17;;
15110;SDS011;7656;51.954;7.998;2023-02-28T19:00:06;9.20;;;6.60;;
15110;SDS011;7656;51.954;7.998;2023-02-28T19:04:28;6.53;;;5.47;;
15110;SDS011;7656;51.954;7.998;2023-02-28T19:08:55;7.93;;;6.03;;
15110;SDS011;7656;51.954;7.998;2023-02-28T19:13:19;9.37;;;7.03;;
15110;SDS011;7656;51.954;7.998;2023-02-28T19:17:40;11.70;;;7.73;;
15110;SDS011;7656;51.954;7.998;2023-02-28T19:22:01;13.10;;;6.73;;
15110;SDS011;7656;51.954;7.998;2023-02-28T19:26:23;11.33;;;6.07;;
15110;SDS011;7656;51.954;7.998;2023-02-28T19:30:49;8.60;;;6.13;;
15110;SDS011;7656;51.954;7.998;2023-02-28T19:35:12;11.50;;;7.80;;
15110;SDS011;7656;51.954;7.998;2023-02-28T19:39:34;12.57;;;8.20;;
15110;SDS011;7656;51.954;7.998;2023-02-28T19:44:00;16.27;;;9.07;;
15110;SDS011;7656;51.954;7.998;2023-02-28T19:48:21;9.13;;;7.50;;
15110;SDS011;7656;51.954;7.998;2023-02-28T19:52:45;13.37;;;8.60;;
15110;SDS011;7656;51.954;7.998;2023-02-28T19:57:08;12.43;;;8.53;;
15110;SDS011;7656;51.954;7.998;2023-02-28T20:01:29;11.33;;;7.80;;
15110;SDS011;7656;51.954;7.998;2023-02-28T20:06:01;9.20;;;6.90;;
15110;SDS011;7656;51.954;7.998;2023-02-28T20:10:26;12.20;;;7.10;;
15110;SDS011;7656;51.954;7.998;2023-02-28T20:14:48;12.27;;;6.83;;
15110;SDS011;7656;51.954;7.998;2023-02-28T20:19:10;7.73;;;5.90;;
15110;SDS011;7656;51.954;7.998;2023-02-28T20:23:32;7.87;;;5.80;;
15110;SDS011;7656;51.954;7.998;2023-02-28T20:27:53;8.53;;;5.17;;
15110;SDS011;7656;51.954;7.998;2023-02-28T20:32:14;9.97;;;6.37;;
15110;SDS011;7656;51.954;7.998;2023-02-28T20:36:35;7.43;;;5.83;;
15110;SDS011;7656;51.954;7.998;2023-02-28T20:41:00;7.13;;;5.97;;
15110;SDS011;7656;51.954;7.998;2023-02-28T20:45:21;9.70;;;6.07;;
15110;SDS011;7656;51.954;7.998;2023-02-28T20:49:43;13.63;;;7.10;;
15110;SDS011;7656;51.954;7.998;2023-02-28T20:54:05;9.00;;;6.40;;
15110;SDS011;7656;51.954;7.998;2023-02-28T20:58:28;12.27;;;8.40;;
15110;SDS011;7656;51.954;7.998;2023-02-28T21:02:52;11.50;;;6.90;;
15110;SDS011;7656;51.954;7.998;2023-02-28T21:07:13;11.17;;;6.93;;
15110;SDS011;7656;51.954;7.998;2023-02-28T21:11:36;9.17;;;5.80;;
15110;SDS011;7656;51.954;7.998;2023-02-28T21:16:02;8.67;;;6.17;;
15110;SDS011;7656;51.954;7.998;2023-02-28T21:20:24;9.37;;;6.97;;
15110;SDS011;7656;51.954;7.998;2023-02-28T21:24:46;11.20;;;7.37;;
15110;SDS011;7656;51.954;7.998;2023-02-28T21:29:07;12.73;;;7.43;;
15110;SDS011;7656;51.954;7.998;2023-02-28T21:33:28;11.10;;;7.70;;
15110;SDS011;7656;51.954;7.998;2023-02-28T21:37:50;12.63;;;7.60;;
15110;SDS011;7656;51.954;7.998;2023-02-28T21:42:11;9.20;;;6.60;;
15110;SDS011;7656;51.954;7.998;2023-02-28T21:46:32;8.70;;;7.17;;
15110;SDS011;7656;51.954;7.998;2023-02-28T21:50:54;10.90;;;7.70;;
15110;SDS011;7656;51.954;7.998;2023-02-28T21:55:17;8.17;;;6.37;;
15110;SDS011;7656;51.954;7.998;2023-02-28T21:59:38;13.03;;;7.57;;
15110;SDS011;7656;51.954;7.998;2023-02-28T22:04:00;9.43;;;7.47;;
15110;SDS011;7656;51.954;7.998;2023-02-28T22:08:23;9.83;;;6.77;;
15110;SDS011;7656;51.954;7.998;2023-02-28T22:12:45;11.67;;;7.73;;
15110;SDS011;7656;51.954;7.998;2023-02-28T22:17:06;12.30;;;7.70;;
15110;SDS011;7656;51.954;7.998;2023-02-28T22:21:27;10.00;;;6.63;;
15110;SDS011;7656;51.954;7.998;2023-02-28T22:25:48;9.37;;;6.40;;
15110;SDS011;7656;51.954;7.998;2023-02-28T22:30:09;8.40;;;6.40;;
15110;SDS011;7656;51.954;7.998;2023-02-28T22:34:30;11.93;;;6.57;;
15110;SDS011;7656;51.954;7.998;2023-02-28T22:38:51;9.13;;;6.23;;
15110;SDS011;7656;51.954;7.998;2023-02-28T22:43:13;9.83;;;5.20;;
15110;SDS011;7656;51.954;7.998;2023-02-28T22:47:34;8.67;;;5.80;;
15110;SDS011;7656;51.954;7.998;2023-02-28T22:51:55;9.67;;;5.20;;
15110;SDS011;7656;51.954;7.998;2023-02-28T22:56:17;11.27;;;5.60;;
15110;SDS011;7656;51.954;7.998;2023-02-28T23:00:42;11.10;;;6.73;;
15110;SDS011;7656;51.954;7.998;2023-02-28T23:05:03;7.17;;;5.70;;
15110;SDS011;7656;51.954;7.998;2023-02-28T23:09:25;7.40;;;5.30;;
15110;SDS011;7656;51.954;7.998;2023-02-28T23:13:46;7.63;;;5.43;;
15110;SDS011;7656;51.954;7.998;2023-02-28T23:18:17;6.77;;;5.17;;
15110;SDS011;7656;51.954;7.998;2023-02-28T23:22:38;8.53;;;5.27;;
15110;SDS011;7656;51.954;7.998;2023-02-28T23:27:00;9.33;;;5.57;;
15110;SDS011;7656;51.954;7.998;2023-02-28T23:31:24;7.27;;;5.27;;
15110;SDS011;7656;51.954;7.998;2023-02-28T23:35:45;9.57;;;5.73;;
15110;SDS011;7656;51.954;7.998;2023-02-28T23:40:07;8.50;;;4.97;;
15110;SDS011;7656;51.954;7.998;2023-02-28T23:44:31;7.40;;;4.47;;
15110;SDS011;7656;51.954;7.998;2023-02-28T23:48:52;6.93;;;5.63;;
15110;SDS011;7656;51.954;7.998;2023-02-28T23:53:13;7.53;;;5.03;;
15110;SDS011;7656;51.954;7.998;2023-02-28T23:57:34;5.90;;;4.83;;
